sensor_id;sensor_type;location;lat;lon;timestamp;P1;durP1;ratioP1;P2;durP2;ratioP2
19396;SDS011;9834;48.076;11.878;2024-01-15T00:02:06;3.50;;;2.47;;
19396;SDS011;9834;48.076;11.878;2024-01-15T00:04:37;6.30;;;2.73;;
19396;SDS011;9834;48.076;11.878;2024-01-15T00:07:07;4.00;;;3.03;;
19396;SDS011;9834;48.076;11.878;2024-01-15T00:09:34;6.33;;;3.27;;
19396;SDS011;9834;48.076;11.878;2024-01-15T00:12:02;4.07;;;2.50;;
19396;SDS011;9834;48.076;11.878;2024-01-15T00:14:32;6.30;;;2.23;;
19396;SDS011;9834;48.076;11.878;2024-01-15T00:17:00;5.73;;;2.97;;
19396;SDS011;9834;48.076;11.878;2024-01-15T00:19:27;11.40;;;3.67;;
19396;SDS011;9834;48.076;11.878;2024-01-15T00:21:58;3.43;;;2.50;;
19396;SDS011;9834;48.076;11.878;2024-01-15T00:24:35;5.40;;;2.50;;
19396;SDS011;9834;48.076;11.878;2024-01-15T00:27:05;6.20;;;2.90;;
19396;SDS011;9834;48.076;11.878;2024-01-15T00:29:33;1.97;;;1.37;;
19396;SDS011;9834;48.076;11.878;2024-01-15T00:32:17;5.77;;;2.80;;
19396;SDS011;9834;48.076;11.878;2024-01-15T00:34:45;3.13;;;1.50;;
19396;SDS011;9834;48.076;11.878;2024-01-15T00:37:19;3.50;;;1.47;;
19396;SDS011;9834;48.076;11.878;2024-01-15T00:39:49;3.93;;;1.90;;
19396;SDS011;9834;48.076;11.878;2024-01-15T00:42:19;3.37;;;2.77;;
19396;SDS011;9834;48.076;11.878;2024-01-15T00:44:47;2.83;;;2.10;;
19396;SDS011;9834;48.076;11.878;2024-01-15T00:47:15;3.83;;;1.97;;
19396;SDS011;9834;48.076;11.878;2024-01-15T00:49:51;4.43;;;2.60;;
19396;SDS011;9834;48.076;11.878;2024-01-15T00:52:20;7.57;;;2.33;;
19396;SDS011;9834;48.076;11.878;2024-01-15T00:54:48;6.93;;;2.47;;
19396;SDS011;9834;48.076;11.878;2024-01-15T00:57:15;4.43;;;2.77;;
19396;SDS011;9834;48.076;11.878;2024-01-15T00:59:48;3.63;;;2.20;;
19396;SDS011;9834;48.076;11.878;2024-01-15T01:02:16;6.20;;;2.57;;
19396;SDS011;9834;48.076;11.878;2024-01-15T01:04:46;7.73;;;3.73;;
19396;SDS011;9834;48.076;11.878;2024-01-15T01:07:13;5.37;;;2.87;;
19396;SDS011;9834;48.076;11.878;2024-01-15T01:09:42;9.73;;;4.30;;
19396;SDS011;9834;48.076;11.878;2024-01-15T01:12:10;8.60;;;3.60;;
19396;SDS011;9834;48.076;11.878;2024-01-15T01:14:38;10.23;;;4.63;;
19396;SDS011;9834;48.076;11.878;2024-01-15T01:17:09;7.07;;;3.03;;
19396;SDS011;9834;48.076;11.878;2024-01-15T01:19:36;6.80;;;3.30;;
19396;SDS011;9834;48.076;11.878;2024-01-15T01:22:06;9.47;;;4.97;;
19396;SDS011;9834;48.076;11.878;2024-01-15T01:24:35;9.30;;;4.97;;
19396;SDS011;9834;48.076;11.878;2024-01-15T01:27:16;10.27;;;4.73;;
19396;SDS011;9834;48.076;11.878;2024-01-15T01:29:47;9.67;;;4.07;;
19396;SDS011;9834;48.076;11.878;2024-01-15T01:32:14;8.30;;;3.87;;
19396;SDS011;9834;48.076;11.878;2024-01-15T01:34:45;7.27;;;4.07;;
19396;SDS011;9834;48.076;11.878;2024-01-15T01:37:12;9.90;;;5.10;;
19396;SDS011;9834;48.076;11.878;2024-01-15T01:39:43;9.27;;;5.43;;
19396;SDS011;9834;48.076;11.878;2024-01-15T01:42:11;8.57;;;4.67;;
19396;SDS011;9834;48.076;11.878;2024-01-15T01:44:43;10.83;;;6.10;;
19396;SDS011;9834;48.076;11.878;2024-01-15T01:47:10;8.33;;;5.03;;
19396;SDS011;9834;48.076;11.878;2024-01-15T01:49:40;6.87;;;4.33;;
19396;SDS011;9834;48.076;11.878;2024-01-15T01:52:17;9.70;;;5.13;;
19396;SDS011;9834;48.076;11.878;2024-01-15T01:54:46;12.50;;;5.77;;
19396;SDS011;9834;48.076;11.878;2024-01-15T01:57:14;13.77;;;6.37;;
19396;SDS011;9834;48.076;11.878;2024-01-15T01:59:44;9.70;;;5.77;;
19396;SDS011;9834;48.076;11.878;2024-01-15T02:02:13;7.13;;;4.43;;
19396;SDS011;9834;48.076;11.878;2024-01-15T02:04:42;8.17;;;4.20;;
19396;SDS011;9834;48.076;11.878;2024-01-15T02:07:10;10.27;;;4.83;;
19396;SDS011;9834;48.076;11.878;2024-01-15T02:09:41;10.63;;;4.70;;
19396;SDS011;9834;48.076;11.878;2024-01-15T02:12:09;10.70;;;5.50;;
19396;SDS011;9834;48.076;11.878;2024-01-15T02:14:47;12.10;;;4.23;;
19396;SDS011;9834;48.076;11.878;2024-01-15T02:17:16;9.10;;;4.93;;
19396;SDS011;9834;48.076;11.878;2024-01-15T02:19:43;6.80;;;3.70;;
19396;SDS011;9834;48.076;11.878;2024-01-15T02:22:12;9.27;;;4.10;;
19396;SDS011;9834;48.076;11.878;2024-01-15T02:24:41;6.67;;;3.43;;
19396;SDS011;9834;48.076;11.878;2024-01-15T02:27:11;9.77;;;3.83;;
19396;SDS011;9834;48.076;11.878;2024-01-15T02:29:57;7.53;;;4.77;;
19396;SDS011;9834;48.076;11.878;2024-01-15T02:32:25;10.40;;;4.83;;
19396;SDS011;9834;48.076;11.878;2024-01-15T02:34:56;6.60;;;3.97;;
19396;SDS011;9834;48.076;11.878;2024-01-15T02:37:28;8.80;;;3.37;;
19396;SDS011;9834;48.076;11.878;2024-01-15T02:40:01;12.93;;;4.10;;
19396;SDS011;9834;48.076;11.878;2024-01-15T02:42:30;4.97;;;3.70;;
19396;SDS011;9834;48.076;11.878;2024-01-15T02:44:59;8.27;;;4.97;;
19396;SDS011;9834;48.076;11.878;2024-01-15T02:47:27;9.10;;;4.23;;
19396;SDS011;9834;48.076;11.878;2024-01-15T02:49:54;5.03;;;3.30;;
19396;SDS011;9834;48.076;11.878;2024-01-15T02:52:24;6.63;;;4.47;;
19396;SDS011;9834;48.076;11.878;2024-01-15T02:54:53;9.53;;;4.20;;
19396;SDS011;9834;48.076;11.878;2024-01-15T02:57:26;6.80;;;4.20;;
19396;SDS011;9834;48.076;11.878;2024-01-15T03:00:06;7.73;;;4.20;;
19396;SDS011;9834;48.076;11.878;2024-01-15T03:02:35;8.23;;;4.40;;
19396;SDS011;9834;48.076;11.878;2024-01-15T03:05:05;6.67;;;3.70;;
19396;SDS011;9834;48.076;11.878;2024-01-15T03:07:35;7.67;;;3.70;;
19396;SDS011;9834;48.076;11.878;2024-01-15T03:10:03;5.10;;;3.03;;
19396;SDS011;9834;48.076;11.878;2024-01-15T03:12:44;8.73;;;4.23;;
19396;SDS011;9834;48.076;11.878;2024-01-15T03:15:13;6.37;;;3.40;;
19396;SDS011;9834;48.076;11.878;2024-01-15T03:17:43;9.83;;;5.17;;
19396;SDS011;9834;48.076;11.878;2024-01-15T03:20:14;9.50;;;4.83;;
19396;SDS011;9834;48.076;11.878;2024-01-15T03:22:47;6.90;;;3.23;;
19396;SDS011;9834;48.076;11.878;2024-01-15T03:25:18;9.53;;;4.30;;
19396;SDS011;9834;48.076;11.878;2024-01-15T03:27:48;6.43;;;4.07;;
19396;SDS011;9834;48.076;11.878;2024-01-15T03:30:17;7.57;;;3.30;;
19396;SDS011;9834;48.076;11.878;2024-01-15T03:32:44;6.30;;;2.90;;
19396;SDS011;9834;48.076;11.878;2024-01-15T03:35:15;8.17;;;4.17;;
19396;SDS011;9834;48.076;11.878;2024-01-15T03:37:54;10.13;;;3.73;;
19396;SDS011;9834;48.076;11.878;2024-01-15T03:40:22;8.77;;;3.97;;
19396;SDS011;9834;48.076;11.878;2024-01-15T03:42:53;5.40;;;2.93;;
19396;SDS011;9834;48.076;11.878;2024-01-15T03:45:23;6.07;;;3.40;;
19396;SDS011;9834;48.076;11.878;2024-01-15T03:47:58;6.00;;;3.40;;
19396;SDS011;9834;48.076;11.878;2024-01-15T03:50:40;6.17;;;3.10;;
19396;SDS011;9834;48.076;11.878;2024-01-15T03:53:07;4.50;;;2.77;;
19396;SDS011;9834;48.076;11.878;2024-01-15T03:55:39;8.73;;;3.50;;
19396;SDS011;9834;48.076;11.878;2024-01-15T03:58:11;4.53;;;2.40;;
19396;SDS011;9834;48.076;11.878;2024-01-15T04:00:45;3.43;;;2.80;;
19396;SDS011;9834;48.076;11.878;2024-01-15T04:03:13;7.70;;;3.13;;
19396;SDS011;9834;48.076;11.878;2024-01-15T04:05:47;10.43;;;2.93;;
19396;SDS011;9834;48.076;11.878;2024-01-15T04:08:15;4.67;;;2.43;;
19396;SDS011;9834;48.076;11.878;2024-01-15T04:10:42;4.23;;;2.43;;
19396;SDS011;9834;48.076;11.878;2024-01-15T04:13:09;4.73;;;2.57;;
19396;SDS011;9834;48.076;11.878;2024-01-15T04:15:36;5.73;;;2.73;;
19396;SDS011;9834;48.076;11.878;2024-01-15T04:20:50;6.57;;;3.10;;
19396;SDS011;9834;48.076;11.878;2024-01-15T04:23:18;6.33;;;2.60;;
19396;SDS011;9834;48.076;11.878;2024-01-15T04:25:48;8.37;;;3.10;;
19396;SDS011;9834;48.076;11.878;2024-01-15T04:28:15;5.77;;;2.60;;
19396;SDS011;9834;48.076;11.878;2024-01-15T04:30:47;4.57;;;2.33;;
19396;SDS011;9834;48.076;11.878;2024-01-15T04:33:22;6.90;;;3.60;;
19396;SDS011;9834;48.076;11.878;2024-01-15T04:35:53;8.13;;;3.20;;
19396;SDS011;9834;48.076;11.878;2024-01-15T04:38:20;6.50;;;3.83;;
19396;SDS011;9834;48.076;11.878;2024-01-15T04:40:54;2.60;;;1.80;;
19396;SDS011;9834;48.076;11.878;2024-01-15T04:43:25;5.63;;;2.77;;
19396;SDS011;9834;48.076;11.878;2024-01-15T04:45:52;5.33;;;2.63;;
19396;SDS011;9834;48.076;11.878;2024-01-15T04:48:27;4.67;;;2.27;;
19396;SDS011;9834;48.076;11.878;2024-01-15T04:50:57;3.63;;;2.83;;
19396;SDS011;9834;48.076;11.878;2024-01-15T04:53:25;5.80;;;3.23;;
19396;SDS011;9834;48.076;11.878;2024-01-15T04:55:53;5.47;;;2.97;;
19396;SDS011;9834;48.076;11.878;2024-01-15T04:58:19;5.00;;;3.00;;
19396;SDS011;9834;48.076;11.878;2024-01-15T05:00:56;5.93;;;2.33;;
19396;SDS011;9834;48.076;11.878;2024-01-15T05:03:23;4.73;;;3.07;;
19396;SDS011;9834;48.076;11.878;2024-01-15T05:05:52;5.13;;;2.73;;
19396;SDS011;9834;48.076;11.878;2024-01-15T05:08:20;3.73;;;2.10;;
19396;SDS011;9834;48.076;11.878;2024-01-15T05:10:53;6.33;;;3.30;;
19396;SDS011;9834;48.076;11.878;2024-01-15T05:13:22;2.10;;;1.90;;
19396;SDS011;9834;48.076;11.878;2024-01-15T05:15:55;11.60;;;3.30;;
19396;SDS011;9834;48.076;11.878;2024-01-15T05:18:26;4.40;;;2.23;;
19396;SDS011;9834;48.076;11.878;2024-01-15T05:20:59;5.67;;;2.87;;
19396;SDS011;9834;48.076;11.878;2024-01-15T05:23:31;5.47;;;3.03;;
19396;SDS011;9834;48.076;11.878;2024-01-15T05:25:59;3.47;;;1.97;;
19396;SDS011;9834;48.076;11.878;2024-01-15T05:28:26;3.57;;;2.40;;
19396;SDS011;9834;48.076;11.878;2024-01-15T05:30:57;5.23;;;2.60;;
19396;SDS011;9834;48.076;11.878;2024-01-15T05:33:24;3.20;;;2.27;;
19396;SDS011;9834;48.076;11.878;2024-01-15T05:35:51;5.90;;;3.07;;
19396;SDS011;9834;48.076;11.878;2024-01-15T05:38:21;6.53;;;3.13;;
19396;SDS011;9834;48.076;11.878;2024-01-15T05:40:50;4.53;;;3.20;;
19396;SDS011;9834;48.076;11.878;2024-01-15T05:43:17;6.50;;;3.00;;
19396;SDS011;9834;48.076;11.878;2024-01-15T05:45:44;2.57;;;2.13;;
19396;SDS011;9834;48.076;11.878;2024-01-15T05:48:17;3.07;;;2.37;;
19396;SDS011;9834;48.076;11.878;2024-01-15T05:50:54;4.77;;;2.40;;
19396;SDS011;9834;48.076;11.878;2024-01-15T05:56:10;6.70;;;3.00;;
19396;SDS011;9834;48.076;11.878;2024-01-15T05:58:37;5.60;;;2.17;;
19396;SDS011;9834;48.076;11.878;2024-01-15T06:01:05;5.13;;;2.43;;
19396;SDS011;9834;48.076;11.878;2024-01-15T06:03:32;4.13;;;2.37;;
19396;SDS011;9834;48.076;11.878;2024-01-15T06:06:00;5.87;;;3.93;;
19396;SDS011;9834;48.076;11.878;2024-01-15T06:08:27;3.33;;;2.00;;
19396;SDS011;9834;48.076;11.878;2024-01-15T06:11:04;4.90;;;2.33;;
19396;SDS011;9834;48.076;11.878;2024-01-15T06:13:33;4.77;;;2.53;;
19396;SDS011;9834;48.076;11.878;2024-01-15T06:16:16;5.80;;;2.50;;
19396;SDS011;9834;48.076;11.878;2024-01-15T06:18:49;3.53;;;2.27;;
19396;SDS011;9834;48.076;11.878;2024-01-15T06:21:17;3.30;;;2.33;;
19396;SDS011;9834;48.076;11.878;2024-01-15T06:23:44;3.27;;;2.00;;
19396;SDS011;9834;48.076;11.878;2024-01-15T06:26:15;7.53;;;2.67;;
19396;SDS011;9834;48.076;11.878;2024-01-15T06:28:50;3.50;;;2.43;;
19396;SDS011;9834;48.076;11.878;2024-01-15T06:31:20;4.67;;;2.33;;
19396;SDS011;9834;48.076;11.878;2024-01-15T06:33:47;4.20;;;2.43;;
19396;SDS011;9834;48.076;11.878;2024-01-15T06:36:14;3.40;;;1.80;;
19396;SDS011;9834;48.076;11.878;2024-01-15T06:38:45;4.30;;;2.30;;
19396;SDS011;9834;48.076;11.878;2024-01-15T06:41:14;4.23;;;1.97;;
19396;SDS011;9834;48.076;11.878;2024-01-15T06:43:41;3.73;;;2.00;;
19396;SDS011;9834;48.076;11.878;2024-01-15T06:46:09;4.63;;;1.90;;
19396;SDS011;9834;48.076;11.878;2024-01-15T06:48:42;4.63;;;2.13;;
19396;SDS011;9834;48.076;11.878;2024-01-15T06:51:09;3.83;;;1.97;;
19396;SDS011;9834;48.076;11.878;2024-01-15T06:53:38;3.57;;;3.20;;
19396;SDS011;9834;48.076;11.878;2024-01-15T06:56:06;4.50;;;1.80;;
19396;SDS011;9834;48.076;11.878;2024-01-15T06:58:35;4.07;;;2.37;;
19396;SDS011;9834;48.076;11.878;2024-01-15T07:01:05;4.27;;;2.53;;
19396;SDS011;9834;48.076;11.878;2024-01-15T07:03:33;3.17;;;2.40;;
19396;SDS011;9834;48.076;11.878;2024-01-15T07:06:00;4.33;;;2.53;;
19396;SDS011;9834;48.076;11.878;2024-01-15T07:08:27;6.90;;;2.87;;
19396;SDS011;9834;48.076;11.878;2024-01-15T07:11:03;4.90;;;2.40;;
19396;SDS011;9834;48.076;11.878;2024-01-15T07:13:35;4.27;;;2.57;;
19396;SDS011;9834;48.076;11.878;2024-01-15T07:16:03;4.07;;;3.53;;
19396;SDS011;9834;48.076;11.878;2024-01-15T07:18:31;4.60;;;2.33;;
19396;SDS011;9834;48.076;11.878;2024-01-15T07:20:59;5.63;;;2.73;;
19396;SDS011;9834;48.076;11.878;2024-01-15T07:23:28;4.70;;;2.20;;
19396;SDS011;9834;48.076;11.878;2024-01-15T07:25:55;5.47;;;2.43;;
19396;SDS011;9834;48.076;11.878;2024-01-15T07:28:22;3.43;;;2.37;;
19396;SDS011;9834;48.076;11.878;2024-01-15T07:30:55;6.43;;;2.53;;
19396;SDS011;9834;48.076;11.878;2024-01-15T07:33:23;4.10;;;2.77;;
19396;SDS011;9834;48.076;11.878;2024-01-15T07:35:53;8.80;;;2.30;;
19396;SDS011;9834;48.076;11.878;2024-01-15T07:38:23;3.13;;;2.50;;
19396;SDS011;9834;48.076;11.878;2024-01-15T07:40:54;4.50;;;2.37;;
19396;SDS011;9834;48.076;11.878;2024-01-15T07:43:23;4.60;;;2.37;;
19396;SDS011;9834;48.076;11.878;2024-01-15T07:45:53;3.33;;;2.13;;
19396;SDS011;9834;48.076;11.878;2024-01-15T07:48:22;6.97;;;3.30;;
19396;SDS011;9834;48.076;11.878;2024-01-15T07:50:49;4.67;;;2.07;;
19396;SDS011;9834;48.076;11.878;2024-01-15T07:53:17;4.43;;;2.17;;
19396;SDS011;9834;48.076;11.878;2024-01-15T07:55:55;3.20;;;1.73;;
19396;SDS011;9834;48.076;11.878;2024-01-15T07:58:23;3.43;;;2.77;;
19396;SDS011;9834;48.076;11.878;2024-01-15T08:00:59;3.60;;;2.00;;
19396;SDS011;9834;48.076;11.878;2024-01-15T08:03:28;4.70;;;2.43;;
19396;SDS011;9834;48.076;11.878;2024-01-15T08:06:03;2.47;;;1.93;;
19396;SDS011;9834;48.076;11.878;2024-01-15T08:08:31;4.33;;;2.17;;
19396;SDS011;9834;48.076;11.878;2024-01-15T08:10:59;5.77;;;2.80;;
19396;SDS011;9834;48.076;11.878;2024-01-15T08:13:27;7.53;;;3.50;;
19396;SDS011;9834;48.076;11.878;2024-01-15T08:15:59;4.90;;;2.70;;
19396;SDS011;9834;48.076;11.878;2024-01-15T08:18:28;3.93;;;1.93;;
19396;SDS011;9834;48.076;11.878;2024-01-15T08:20:56;3.37;;;2.33;;
19396;SDS011;9834;48.076;11.878;2024-01-15T08:23:23;3.63;;;2.17;;
19396;SDS011;9834;48.076;11.878;2024-01-15T08:25:56;4.43;;;2.30;;
19396;SDS011;9834;48.076;11.878;2024-01-15T08:28:24;4.67;;;2.30;;
19396;SDS011;9834;48.076;11.878;2024-01-15T08:30:55;6.40;;;2.97;;
19396;SDS011;9834;48.076;11.878;2024-01-15T08:33:23;4.87;;;2.63;;
19396;SDS011;9834;48.076;11.878;2024-01-15T08:35:55;6.00;;;2.40;;
19396;SDS011;9834;48.076;11.878;2024-01-15T08:38:28;5.23;;;2.93;;
19396;SDS011;9834;48.076;11.878;2024-01-15T08:40:55;5.67;;;2.90;;
19396;SDS011;9834;48.076;11.878;2024-01-15T08:43:26;4.37;;;2.80;;
19396;SDS011;9834;48.076;11.878;2024-01-15T08:45:59;5.00;;;3.17;;
19396;SDS011;9834;48.076;11.878;2024-01-15T08:48:29;2.03;;;1.80;;
19396;SDS011;9834;48.076;11.878;2024-01-15T08:51:01;3.10;;;2.40;;
19396;SDS011;9834;48.076;11.878;2024-01-15T08:53:31;3.60;;;2.47;;
19396;SDS011;9834;48.076;11.878;2024-01-15T08:55:59;4.10;;;2.37;;
19396;SDS011;9834;48.076;11.878;2024-01-15T08:58:36;6.27;;;2.40;;
19396;SDS011;9834;48.076;11.878;2024-01-15T09:01:06;7.63;;;3.70;;
19396;SDS011;9834;48.076;11.878;2024-01-15T09:03:36;5.13;;;2.43;;
19396;SDS011;9834;48.076;11.878;2024-01-15T09:06:05;6.07;;;2.33;;
19396;SDS011;9834;48.076;11.878;2024-01-15T09:08:34;6.90;;;2.23;;
19396;SDS011;9834;48.076;11.878;2024-01-15T09:11:02;4.17;;;2.23;;
19396;SDS011;9834;48.076;11.878;2024-01-15T09:13:32;3.43;;;1.73;;
19396;SDS011;9834;48.076;11.878;2024-01-15T09:16:03;5.07;;;2.97;;
19396;SDS011;9834;48.076;11.878;2024-01-15T09:18:31;3.23;;;2.63;;
19396;SDS011;9834;48.076;11.878;2024-01-15T09:21:03;4.80;;;2.53;;
19396;SDS011;9834;48.076;11.878;2024-01-15T09:23:35;5.73;;;2.53;;
19396;SDS011;9834;48.076;11.878;2024-01-15T09:26:08;4.87;;;2.27;;
19396;SDS011;9834;48.076;11.878;2024-01-15T09:28:35;5.90;;;2.60;;
19396;SDS011;9834;48.076;11.878;2024-01-15T09:31:03;5.00;;;2.77;;
19396;SDS011;9834;48.076;11.878;2024-01-15T09:33:31;5.00;;;2.47;;
19396;SDS011;9834;48.076;11.878;2024-01-15T09:36:02;5.67;;;2.60;;
19396;SDS011;9834;48.076;11.878;2024-01-15T09:38:30;7.73;;;2.80;;
19396;SDS011;9834;48.076;11.878;2024-01-15T09:40:59;3.43;;;2.67;;
19396;SDS011;9834;48.076;11.878;2024-01-15T09:43:31;4.93;;;2.87;;
19396;SDS011;9834;48.076;11.878;2024-01-15T09:45:58;4.57;;;2.57;;
19396;SDS011;9834;48.076;11.878;2024-01-15T09:48:28;5.87;;;2.63;;
19396;SDS011;9834;48.076;11.878;2024-01-15T09:50:59;8.37;;;2.87;;
19396;SDS011;9834;48.076;11.878;2024-01-15T09:53:34;5.07;;;2.30;;
19396;SDS011;9834;48.076;11.878;2024-01-15T09:56:06;5.57;;;2.93;;
19396;SDS011;9834;48.076;11.878;2024-01-15T09:58:37;2.90;;;2.10;;
19396;SDS011;9834;48.076;11.878;2024-01-15T10:01:08;2.70;;;2.20;;
19396;SDS011;9834;48.076;11.878;2024-01-15T10:03:41;5.33;;;2.73;;
19396;SDS011;9834;48.076;11.878;2024-01-15T10:06:08;5.07;;;2.53;;
19396;SDS011;9834;48.076;11.878;2024-01-15T10:08:37;4.10;;;1.90;;
19396;SDS011;9834;48.076;11.878;2024-01-15T10:11:13;2.70;;;1.90;;
19396;SDS011;9834;48.076;11.878;2024-01-15T10:13:41;3.77;;;2.30;;
19396;SDS011;9834;48.076;11.878;2024-01-15T10:16:09;1.67;;;1.57;;
19396;SDS011;9834;48.076;11.878;2024-01-15T10:18:37;5.23;;;2.10;;
19396;SDS011;9834;48.076;11.878;2024-01-15T10:21:08;4.10;;;2.07;;
19396;SDS011;9834;48.076;11.878;2024-01-15T10:23:37;4.60;;;2.20;;
19396;SDS011;9834;48.076;11.878;2024-01-15T10:26:22;3.40;;;2.27;;
19396;SDS011;9834;48.076;11.878;2024-01-15T10:28:52;5.10;;;2.37;;
19396;SDS011;9834;48.076;11.878;2024-01-15T10:31:19;2.47;;;2.27;;
19396;SDS011;9834;48.076;11.878;2024-01-15T10:33:49;2.60;;;1.80;;
19396;SDS011;9834;48.076;11.878;2024-01-15T10:36:17;4.03;;;1.97;;
19396;SDS011;9834;48.076;11.878;2024-01-15T10:38:47;2.90;;;2.47;;
19396;SDS011;9834;48.076;11.878;2024-01-15T10:41:18;2.77;;;1.90;;
19396;SDS011;9834;48.076;11.878;2024-01-15T10:43:47;2.20;;;1.27;;
19396;SDS011;9834;48.076;11.878;2024-01-15T10:46:14;3.40;;;1.93;;
19396;SDS011;9834;48.076;11.878;2024-01-15T10:48:45;2.33;;;1.83;;
19396;SDS011;9834;48.076;11.878;2024-01-15T10:51:12;2.20;;;1.43;;
19396;SDS011;9834;48.076;11.878;2024-01-15T10:53:40;2.13;;;1.47;;
19396;SDS011;9834;48.076;11.878;2024-01-15T10:56:10;2.77;;;1.30;;
19396;SDS011;9834;48.076;11.878;2024-01-15T10:58:40;1.27;;;1.17;;
19396;SDS011;9834;48.076;11.878;2024-01-15T11:01:09;1.40;;;1.30;;
19396;SDS011;9834;48.076;11.878;2024-01-15T11:03:38;2.20;;;1.50;;
19396;SDS011;9834;48.076;11.878;2024-01-15T11:06:14;3.37;;;1.57;;
19396;SDS011;9834;48.076;11.878;2024-01-15T11:08:46;2.00;;;1.33;;
19396;SDS011;9834;48.076;11.878;2024-01-15T11:11:21;2.07;;;1.00;;
19396;SDS011;9834;48.076;11.878;2024-01-15T11:13:50;1.83;;;1.53;;
19396;SDS011;9834;48.076;11.878;2024-01-15T11:16:17;2.13;;;0.90;;
19396;SDS011;9834;48.076;11.878;2024-01-15T11:21:31;3.90;;;2.00;;
19396;SDS011;9834;48.076;11.878;2024-01-15T11:24:01;1.13;;;1.03;;
19396;SDS011;9834;48.076;11.878;2024-01-15T11:26:38;1.13;;;1.00;;
19396;SDS011;9834;48.076;11.878;2024-01-15T11:32:06;2.63;;;0.90;;
19396;SDS011;9834;48.076;11.878;2024-01-15T11:34:53;3.33;;;1.83;;
19396;SDS011;9834;48.076;11.878;2024-01-15T11:37:26;1.23;;;1.13;;
19396;SDS011;9834;48.076;11.878;2024-01-15T11:39:54;1.73;;;1.37;;
19396;SDS011;9834;48.076;11.878;2024-01-15T11:42:22;3.83;;;1.30;;
19396;SDS011;9834;48.076;11.878;2024-01-15T11:44:54;1.60;;;0.67;;
19396;SDS011;9834;48.076;11.878;2024-01-15T11:47:44;1.37;;;0.90;;
19396;SDS011;9834;48.076;11.878;2024-01-15T11:50:39;1.70;;;0.93;;
19396;SDS011;9834;48.076;11.878;2024-01-15T11:56:01;1.90;;;1.43;;
19396;SDS011;9834;48.076;11.878;2024-01-15T11:58:34;3.27;;;1.40;;
19396;SDS011;9834;48.076;11.878;2024-01-15T12:01:10;3.73;;;1.13;;
19396;SDS011;9834;48.076;11.878;2024-01-15T12:03:41;2.47;;;1.50;;
19396;SDS011;9834;48.076;11.878;2024-01-15T12:06:11;0.97;;;0.80;;
19396;SDS011;9834;48.076;11.878;2024-01-15T12:08:49;1.23;;;0.80;;
19396;SDS011;9834;48.076;11.878;2024-01-15T12:11:28;1.80;;;1.37;;
19396;SDS011;9834;48.076;11.878;2024-01-15T12:13:56;1.50;;;0.70;;
19396;SDS011;9834;48.076;11.878;2024-01-15T12:16:26;1.73;;;1.23;;
19396;SDS011;9834;48.076;11.878;2024-01-15T12:18:59;0.70;;;0.70;;
19396;SDS011;9834;48.076;11.878;2024-01-15T12:21:29;1.10;;;1.10;;
19396;SDS011;9834;48.076;11.878;2024-01-15T12:24:03;1.63;;;1.07;;
19396;SDS011;9834;48.076;11.878;2024-01-15T12:26:33;2.43;;;1.20;;
19396;SDS011;9834;48.076;11.878;2024-01-15T12:29:05;1.67;;;1.10;;
19396;SDS011;9834;48.076;11.878;2024-01-15T12:31:34;2.80;;;1.70;;
19396;SDS011;9834;48.076;11.878;2024-01-15T12:34:02;1.20;;;1.10;;
19396;SDS011;9834;48.076;11.878;2024-01-15T12:36:30;2.40;;;1.40;;
19396;SDS011;9834;48.076;11.878;2024-01-15T12:38:59;2.27;;;1.20;;
19396;SDS011;9834;48.076;11.878;2024-01-15T12:41:39;3.50;;;1.33;;
19396;SDS011;9834;48.076;11.878;2024-01-15T12:44:07;2.03;;;1.37;;
19396;SDS011;9834;48.076;11.878;2024-01-15T12:46:36;2.33;;;0.97;;
19396;SDS011;9834;48.076;11.878;2024-01-15T12:49:04;1.23;;;0.90;;
19396;SDS011;9834;48.076;11.878;2024-01-15T12:51:39;2.20;;;1.87;;
19396;SDS011;9834;48.076;11.878;2024-01-15T12:54:09;1.77;;;1.47;;
19396;SDS011;9834;48.076;11.878;2024-01-15T12:56:37;2.03;;;1.20;;
19396;SDS011;9834;48.076;11.878;2024-01-15T12:59:07;1.57;;;0.97;;
19396;SDS011;9834;48.076;11.878;2024-01-15T13:01:37;2.53;;;1.40;;
19396;SDS011;9834;48.076;11.878;2024-01-15T13:04:09;1.77;;;0.80;;
19396;SDS011;9834;48.076;11.878;2024-01-15T13:06:49;2.83;;;1.70;;
19396;SDS011;9834;48.076;11.878;2024-01-15T13:09:26;1.47;;;1.00;;
19396;SDS011;9834;48.076;11.878;2024-01-15T13:11:55;1.80;;;1.50;;
19396;SDS011;9834;48.076;11.878;2024-01-15T13:14:24;1.60;;;1.33;;
19396;SDS011;9834;48.076;11.878;2024-01-15T13:17:03;1.80;;;0.90;;
19396;SDS011;9834;48.076;11.878;2024-01-15T13:19:31;1.43;;;0.73;;
19396;SDS011;9834;48.076;11.878;2024-01-15T13:21:59;3.13;;;1.47;;
19396;SDS011;9834;48.076;11.878;2024-01-15T13:24:26;2.00;;;1.20;;
19396;SDS011;9834;48.076;11.878;2024-01-15T13:26:57;4.13;;;1.67;;
19396;SDS011;9834;48.076;11.878;2024-01-15T13:29:27;2.20;;;1.53;;
19396;SDS011;9834;48.076;11.878;2024-01-15T13:31:54;1.50;;;1.13;;
19396;SDS011;9834;48.076;11.878;2024-01-15T13:34:31;1.70;;;1.00;;
19396;SDS011;9834;48.076;11.878;2024-01-15T13:36:58;0.97;;;0.97;;
19396;SDS011;9834;48.076;11.878;2024-01-15T13:39:26;2.53;;;1.60;;
19396;SDS011;9834;48.076;11.878;2024-01-15T13:41:58;1.40;;;1.30;;
19396;SDS011;9834;48.076;11.878;2024-01-15T13:44:26;2.23;;;1.63;;
19396;SDS011;9834;48.076;11.878;2024-01-15T13:46:54;2.53;;;1.63;;
19396;SDS011;9834;48.076;11.878;2024-01-15T13:49:23;1.30;;;1.20;;
19396;SDS011;9834;48.076;11.878;2024-01-15T13:51:55;1.57;;;0.90;;
19396;SDS011;9834;48.076;11.878;2024-01-15T13:54:27;1.50;;;1.07;;
19396;SDS011;9834;48.076;11.878;2024-01-15T13:57:00;2.77;;;1.40;;
19396;SDS011;9834;48.076;11.878;2024-01-15T13:59:31;2.80;;;1.43;;
19396;SDS011;9834;48.076;11.878;2024-01-15T14:01:59;1.73;;;1.23;;
19396;SDS011;9834;48.076;11.878;2024-01-15T14:04:27;3.10;;;1.80;;
19396;SDS011;9834;48.076;11.878;2024-01-15T14:06:55;2.27;;;1.33;;
19396;SDS011;9834;48.076;11.878;2024-01-15T14:09:24;5.47;;;2.20;;
19396;SDS011;9834;48.076;11.878;2024-01-15T14:11:54;4.67;;;2.40;;
19396;SDS011;9834;48.076;11.878;2024-01-15T14:14:21;2.43;;;1.87;;
19396;SDS011;9834;48.076;11.878;2024-01-15T14:16:49;1.67;;;1.33;;
19396;SDS011;9834;48.076;11.878;2024-01-15T14:19:16;1.53;;;1.30;;
19396;SDS011;9834;48.076;11.878;2024-01-15T14:21:45;1.57;;;1.27;;
19396;SDS011;9834;48.076;11.878;2024-01-15T14:24:13;1.67;;;1.53;;
19396;SDS011;9834;48.076;11.878;2024-01-15T14:26:49;3.60;;;1.87;;
19396;SDS011;9834;48.076;11.878;2024-01-15T14:29:18;3.53;;;2.07;;
19396;SDS011;9834;48.076;11.878;2024-01-15T14:31:47;1.67;;;1.03;;
19396;SDS011;9834;48.076;11.878;2024-01-15T14:34:15;1.17;;;0.93;;
19396;SDS011;9834;48.076;11.878;2024-01-15T14:36:47;2.60;;;1.43;;
19396;SDS011;9834;48.076;11.878;2024-01-15T14:39:16;1.70;;;1.13;;
19396;SDS011;9834;48.076;11.878;2024-01-15T14:41:44;3.40;;;1.20;;
19396;SDS011;9834;48.076;11.878;2024-01-15T14:44:14;2.63;;;1.50;;
19396;SDS011;9834;48.076;11.878;2024-01-15T14:46:41;1.07;;;1.07;;
19396;SDS011;9834;48.076;11.878;2024-01-15T14:49:09;1.83;;;1.30;;
19396;SDS011;9834;48.076;11.878;2024-01-15T14:51:36;2.93;;;1.40;;
19396;SDS011;9834;48.076;11.878;2024-01-15T14:54:05;3.87;;;1.30;;
19396;SDS011;9834;48.076;11.878;2024-01-15T14:56:34;3.30;;;1.17;;
19396;SDS011;9834;48.076;11.878;2024-01-15T14:59:01;2.87;;;1.37;;
19396;SDS011;9834;48.076;11.878;2024-01-15T15:01:29;1.10;;;0.80;;
19396;SDS011;9834;48.076;11.878;2024-01-15T15:03:57;1.53;;;0.90;;
19396;SDS011;9834;48.076;11.878;2024-01-15T15:06:27;1.80;;;1.17;;
19396;SDS011;9834;48.076;11.878;2024-01-15T15:08:55;0.83;;;0.73;;
19396;SDS011;9834;48.076;11.878;2024-01-15T15:11:25;2.17;;;0.83;;
19396;SDS011;9834;48.076;11.878;2024-01-15T15:13:55;1.37;;;0.90;;
19396;SDS011;9834;48.076;11.878;2024-01-15T15:16:25;1.00;;;0.80;;
19396;SDS011;9834;48.076;11.878;2024-01-15T15:19:01;2.07;;;0.80;;
19396;SDS011;9834;48.076;11.878;2024-01-15T15:21:30;1.60;;;1.20;;